createdAt,value
2018-12-20T00:01:37.174Z,3.838196
2018-12-20T00:06:59.961Z,3.959045
2018-12-20T00:12:22.867Z,4.130249
2018-12-20T00:17:46.489Z,4.351807
2018-12-20T00:23:09.113Z,4.512939
2018-12-20T00:28:32.118Z,4.623718
2018-12-20T00:33:54.758Z,4.724426
2018-12-20T00:39:17.507Z,4.77478
2018-12-20T00:44:40.170Z,4.825134
2018-12-20T00:50:02.942Z,4.855347
2018-12-20T00:55:25.728Z,4.935913
2018-12-20T01:00:48.499Z,4.986267
2018-12-20T01:06:11.244Z,4.935913
2018-12-20T01:11:33.986Z,4.875488
2018-12-20T01:16:56.788Z,4.744568
2018-12-20T01:22:19.650Z,4.533081
2018-12-20T01:27:42.300Z,4.351807
2018-12-20T01:33:05.020Z,4.130249
2018-12-20T01:38:27.834Z,4.281311
2018-12-20T01:43:50.254Z,4.472656
2018-12-20T01:49:12.975Z,4.563293
2018-12-20T01:54:36.548Z,4.563293
2018-12-20T02:00:00.165Z,4.543152
2018-12-20T02:05:23.784Z,4.502869
2018-12-20T02:10:46.537Z,4.432373
2018-12-20T02:16:09.417Z,4.382019
2018-12-20T02:21:32.102Z,4.291382
2018-12-20T02:26:54.815Z,4.200745
2018-12-20T02:32:17.734Z,4.291382
2018-12-20T02:37:40.622Z,4.432373
2018-12-20T02:43:04.788Z,4.422302
2018-12-20T02:48:27.383Z,4.351807
2018-12-20T02:53:50.303Z,4.563293
2018-12-20T02:59:13.163Z,4.64386
2018-12-20T03:04:35.857Z,4.794922
2018-12-20T03:09:58.512Z,4.835205
2018-12-20T03:15:21.257Z,4.935913
2018-12-20T03:20:43.963Z,5.016479
2018-12-20T03:26:06.653Z,5.117188
2018-12-20T03:31:29.778Z,5.197754
2018-12-20T03:36:53.278Z,5.217896
2018-12-20T03:42:16.031Z,5.348816
2018-12-20T03:47:38.616Z,5.39917
2018-12-20T03:53:01.368Z,5.39917
2018-12-20T03:58:24.422Z,5.439453
2018-12-20T04:03:46.852Z,5.469666
2018-12-20T04:09:09.604Z,5.479736
2018-12-20T04:14:32.507Z,5.419312
2018-12-20T04:19:56.720Z,5.409241
2018-12-20T04:25:19.379Z,5.419312
2018-12-20T04:30:42.356Z,5.590515
2018-12-20T04:36:14.835Z,5.590515
2018-12-20T04:41:37.661Z,5.600586
2018-12-20T04:47:01.315Z,5.661011
2018-12-20T04:52:24.237Z,5.661011
2018-12-20T04:57:46.895Z,5.600586
2018-12-20T05:03:10.010Z,5.590515
2018-12-20T05:08:32.854Z,5.630798
2018-12-20T05:13:55.553Z,5.600586
2018-12-20T05:19:18.222Z,5.620728
2018-12-20T05:24:41.068Z,5.590515
2018-12-20T05:30:03.934Z,5.600586
2018-12-20T05:35:26.529Z,5.580444
2018-12-20T05:40:49.253Z,5.590515
2018-12-20T05:46:12.373Z,5.580444
2018-12-20T05:51:35.633Z,5.550232
2018-12-20T05:56:58.401Z,5.560303
2018-12-20T06:02:21.365Z,5.600586
2018-12-20T06:07:44.237Z,5.580444
2018-12-20T06:13:06.864Z,5.560303
2018-12-20T06:18:30.882Z,5.580444
2018-12-20T06:23:54.228Z,5.560303
2018-12-20T06:29:17.030Z,5.489807
2018-12-20T06:34:39.839Z,5.469666
2018-12-20T06:40:03.551Z,5.449524
2018-12-20T06:45:26.419Z,5.439453
2018-12-20T06:50:49.305Z,5.419312
2018-12-20T06:56:12.186Z,5.439453
2018-12-20T07:01:35.091Z,5.469666
2018-12-20T07:06:57.797Z,5.469666
2018-12-20T07:12:20.547Z,5.449524
2018-12-20T07:17:44.573Z,5.479736
2018-12-20T07:23:08.890Z,5.469666
2018-12-20T07:28:31.708Z,5.439453
2018-12-20T07:33:54.523Z,5.409241
2018-12-20T07:39:17.303Z,5.419312
2018-12-20T07:44:40.292Z,5.449524
2018-12-20T07:50:03.192Z,5.449524
2018-12-20T07:55:26.442Z,5.449524
2018-12-20T08:00:49.233Z,5.479736
2018-12-20T08:06:12.030Z,5.449524
2018-12-20T08:11:35.704Z,5.449524
2018-12-20T08:16:58.397Z,5.489807
2018-12-20T08:22:21.125Z,5.52002
2018-12-20T08:27:43.939Z,5.560303
2018-12-20T08:33:06.849Z,5.560303
2018-12-20T08:38:29.722Z,5.600586
2018-12-20T08:44:03.248Z,5.65094
2018-12-20T08:49:25.945Z,5.731506
2018-12-20T08:54:49.078Z,5.78186
2018-12-20T09:00:11.915Z,5.802002
2018-12-20T09:05:34.653Z,5.90271
2018-12-20T09:10:57.450Z,5.963135
2018-12-20T09:16:20.252Z,5.993347
2018-12-20T09:21:42.998Z,5.983276
2018-12-20T09:27:05.707Z,6.02356
2018-12-20T09:32:28.633Z,6.053772
2018-12-20T09:37:51.598Z,6.114197
2018-12-20T09:43:15.547Z,6.194763
2018-12-20T09:48:48.716Z,6.235046
2018-12-20T09:54:11.892Z,6.315613
2018-12-20T09:59:34.675Z,6.396179
2018-12-20T10:04:57.470Z,6.456604
2018-12-20T10:10:20.195Z,6.5271
2018-12-20T10:15:42.987Z,6.567383
2018-12-20T10:21:05.952Z,6.688232
2018-12-20T10:26:28.673Z,6.809082
2018-12-20T10:31:51.369Z,6.889648
2018-12-20T11:17:37.117Z,7.856445
2018-12-20T11:29:00.974Z,7.78595
2018-12-20T11:34:24.031Z,7.765808
2018-12-20T11:39:46.702Z,7.906799
2018-12-20T11:45:10.623Z,7.876587
2018-12-20T12:16:20.633Z,7.836304
2018-12-20T12:21:43.760Z,7.856445
2018-12-20T12:27:06.366Z,8.057861
2018-12-20T12:32:29.103Z,8.239136
2018-12-20T12:37:52.039Z,8.390198
2018-12-20T12:43:15.057Z,8.208923
2018-12-20T12:48:37.797Z,8.16864
2018-12-20T12:54:00.705Z,8.098145
2018-12-20T12:59:23.445Z,8.067932
2018-12-20T13:04:46.941Z,8.098145
2018-12-20T13:10:10.684Z,8.098145
2018-12-20T13:15:33.533Z,8.057861
2018-12-20T13:20:56.942Z,7.987366
2018-12-20T13:26:19.769Z,7.997437
2018-12-20T13:31:42.577Z,8.088074
2018-12-20T13:37:06.254Z,8.098145
2018-12-20T13:42:29.951Z,8.057861
2018-12-20T13:47:53.408Z,7.91687
2018-12-20T13:53:16.358Z,7.836304
2018-12-20T13:58:39.105Z,7.816162
2018-12-20T14:04:01.856Z,7.725525
2018-12-20T14:09:26.291Z,7.705383
2018-12-20T14:14:49.006Z,7.725525
2018-12-20T14:20:11.798Z,7.6651
2018-12-20T14:25:34.502Z,7.6651
2018-12-20T14:30:57.289Z,7.584534
2018-12-20T14:36:20.086Z,7.473755
2018-12-20T14:41:43.067Z,7.423401
2018-12-20T14:47:05.957Z,7.41333
2018-12-20T14:52:28.761Z,7.373047
2018-12-20T14:57:51.472Z,7.302551
2018-12-20T15:03:14.226Z,7.272339
2018-12-20T15:08:37.078Z,7.232056
2018-12-20T15:14:00.030Z,7.181702
2018-12-20T15:19:23.097Z,7.16156
2018-12-20T15:24:46.848Z,7.141418
2018-12-20T15:30:10.005Z,7.111206
2018-12-20T15:35:33.119Z,7.080994
2018-12-20T15:40:56.057Z,7.141418
2018-12-20T15:46:19.029Z,7.091064
2018-12-20T15:51:52.631Z,7.04071
2018-12-20T15:57:15.371Z,6.929932
2018-12-20T16:02:38.132Z,6.889648
2018-12-20T16:08:01.063Z,6.728516
2018-12-20T16:13:23.843Z,6.637878
2018-12-20T16:18:46.514Z,6.597595
2018-12-20T16:24:19.327Z,6.547241
2018-12-20T16:29:52.234Z,6.5271
2018-12-20T16:35:23.948Z,6.506958
2018-12-20T16:40:56.094Z,6.53717
2018-12-20T16:46:18.861Z,6.5271
2018-12-20T16:51:50.636Z,6.5271
2018-12-20T16:57:13.807Z,6.496887
2018-12-20T17:02:36.580Z,6.476746
2018-12-20T17:07:59.522Z,6.456604
2018-12-20T17:13:31.054Z,6.456604
2018-12-20T17:18:54.118Z,6.456604
2018-12-20T17:24:16.914Z,6.506958
2018-12-20T17:29:48.633Z,6.506958
2018-12-20T17:35:21.490Z,6.476746
2018-12-20T17:40:55.673Z,6.446533
2018-12-20T17:46:29.956Z,6.456604
2018-12-20T17:52:04.497Z,6.446533
2018-12-20T17:57:37.816Z,6.456604
2018-12-20T18:03:10.774Z,6.476746
2018-12-20T18:08:33.694Z,6.476746
2018-12-20T18:13:56.487Z,6.446533
2018-12-20T18:19:19.316Z,6.446533
2018-12-20T18:24:43.303Z,6.446533
2018-12-20T18:30:06.073Z,6.456604
2018-12-20T18:35:32.089Z,6.476746
2018-12-20T18:40:55.788Z,6.476746
2018-12-20T18:46:18.548Z,6.456604
2018-12-20T18:57:42.497Z,6.456604
2018-12-20T19:03:05.591Z,6.476746
2018-12-20T19:08:28.327Z,6.476746
2018-12-20T19:13:51.107Z,6.476746
2018-12-20T19:19:14.873Z,6.456604
2018-12-20T19:24:37.837Z,6.446533
2018-12-20T19:30:00.667Z,6.446533
2018-12-20T19:35:33.975Z,6.456604
2018-12-20T19:41:07.007Z,6.456604
2018-12-20T19:46:40.464Z,6.476746
2018-12-20T19:52:12.448Z,6.456604
2018-12-20T19:57:36.214Z,6.496887
2018-12-20T20:02:59.237Z,6.5271
2018-12-20T20:08:22.197Z,6.53717
2018-12-20T20:13:44.958Z,6.547241
2018-12-20T20:19:07.653Z,6.567383
2018-12-20T20:24:30.630Z,6.637878
2018-12-20T20:29:53.367Z,6.607666
2018-12-20T20:35:18.080Z,6.627808
2018-12-20T20:40:40.810Z,6.647949
2018-12-20T20:46:03.532Z,6.708374
2018-12-20T20:51:26.283Z,6.748657
2018-12-20T20:56:50.778Z,6.78894
2018-12-20T21:02:14.456Z,6.758728
2018-12-20T21:07:37.154Z,6.77887
2018-12-20T21:12:59.907Z,6.809082
2018-12-20T21:18:22.643Z,6.829224
2018-12-20T21:23:45.408Z,6.809082
2018-12-20T21:29:08.256Z,6.809082
2018-12-20T21:34:31.106Z,6.78894
2018-12-20T21:39:53.832Z,6.859436
2018-12-20T21:45:16.873Z,6.90979
2018-12-20T21:50:39.662Z,6.990356
2018-12-20T21:56:02.317Z,6.940002
2018-12-20T22:01:25.167Z,6.940002
2018-12-20T22:06:48.988Z,7.000427
2018-12-20T22:12:11.830Z,7.04071
2018-12-20T22:17:34.518Z,7.080994
2018-12-20T22:22:57.226Z,7.070923
2018-12-20T22:28:19.893Z,7.080994
2018-12-20T22:33:42.616Z,7.091064
2018-12-20T22:39:05.244Z,7.16156
2018-12-20T22:44:27.963Z,7.121277
2018-12-20T22:49:50.692Z,7.111206
2018-12-20T22:55:15.689Z,7.080994
2018-12-20T23:00:38.337Z,7.091064
2018-12-20T23:06:01.432Z,7.181702
2018-12-20T23:11:24.749Z,7.211914
2018-12-20T23:16:53.598Z,7.181702
2018-12-20T23:22:10.954Z,7.191772
2018-12-20T23:27:33.610Z,7.242126
2018-12-20T23:32:56.960Z,7.232056
2018-12-20T23:38:19.533Z,7.121277
2018-12-20T23:43:42.383Z,7.121277
2018-12-20T23:49:05.045Z,7.000427
2018-12-20T23:54:27.726Z,6.90979
2018-12-20T23:59:51.329Z,6.758728
